»·PEaware :: N1SC KPDX-KSEA

N1SC :: KPDX-KSEA

FLIGHT INFORMATION

Flight Status: Arrived
Operator: Privately registered:
United States
More flights under this callsign
Pilot: Chris C. (10181)
Aircraft: PIPER PA-31/31P NAVAJO CHIEFTAIN
(PA31)
More flights by this aircraft type
Origin: KPDX Portland Intl
United States
Destination: KSEA Seattle-Tacoma Intl
United States
More flights between these airports :: More routes between these airports
Route: PTLD1 BTG HAWKZ7
File this flight plan on PilotEdge
Remarks: Happy Sunday!
Altitude:
(Current/Filed)
8,000ft
Speed:
(Current/Filed)
180kts
Departed: 26-Jul-20 02:41 PM
Arrived: 26-Jul-20 03:31 PM
Distance/Time
Traveled:
112nm/0:50
Distance/Time
To Go:
Arrived

Flight Plot

Page will automatically refresh every two minutes.


Map Options




Map Legend


Flown Route
Filed Route
Departure Airport
Arrival Airport
Navaid (VOR, NDB)
Fix

Horizontal Profiles

Position Reports

Time Latitude Longitude Heading Altitude Ground
Speed
26-Jul-20 14:21 45.586714 -122.581554 299 33ft 0kts
26-Jul-20 14:22 45.586714 -122.581554 299 33ft 0kts
26-Jul-20 14:23 45.586714 -122.581554 299 33ft 0kts
26-Jul-20 14:24 45.586714 -122.581554 299 33ft 0kts
26-Jul-20 14:25 45.586714 -122.581554 299 33ft 0kts
26-Jul-20 14:26 45.586714 -122.581554 299 33ft 0kts
26-Jul-20 14:27 45.586714 -122.581554 299 33ft 0kts
26-Jul-20 14:28 45.586714 -122.581554 299 33ft 0kts
26-Jul-20 14:29 45.586714 -122.581554 299 33ft 0kts
26-Jul-20 14:30 45.586714 -122.581554 299 33ft 0kts
26-Jul-20 14:31 45.587359 -122.582378 322 33ft 10kts
26-Jul-20 14:32 45.587921 -122.582745 26 33ft 0kts
26-Jul-20 14:33 45.587921 -122.582745 26 33ft 0kts
26-Jul-20 14:34 45.587921 -122.582745 26 33ft 0kts
26-Jul-20 14:35 45.589016 -122.583997 298 33ft 10kts
26-Jul-20 14:36 45.590797 -122.588608 298 33ft 11kts
26-Jul-20 14:37 45.593143 -122.594558 298 33ft 7kts
26-Jul-20 14:38 45.593920 -122.596186 6 33ft 0kts
26-Jul-20 14:39 45.593968 -122.596159 28 33ft 1kts
26-Jul-20 14:40 45.591257 -122.586589 116 49ft 100kts
26-Jul-20 14:41 45.576651 -122.550701 116 1109ft 106kts
26-Jul-20 14:42 45.558914 -122.512673 120 2188ft 116kts
26-Jul-20 14:43 45.539331 -122.472307 116 2993ft 150kts
26-Jul-20 14:44 45.519740 -122.411570 114 3001ft 178kts
26-Jul-20 14:45 45.495847 -122.347426 119 2924ft 184kts
26-Jul-20 14:46 45.491597 -122.285475 47 3770ft 162kts
26-Jul-20 14:47 45.529871 -122.316024 311 4364ft 184kts
26-Jul-20 14:48 45.564269 -122.365906 322 5405ft 171kts
26-Jul-20 14:49 45.599284 -122.415190 327 6011ft 190kts
26-Jul-20 14:51 45.644163 -122.464003 327 6003ft 208kts
26-Jul-20 14:52 45.688940 -122.516165 320 6003ft 208kts
26-Jul-20 14:53 45.731087 -122.573453 320 6003ft 208kts
26-Jul-20 14:54 45.775648 -122.623369 1 6015ft 194kts
26-Jul-20 14:55 45.830066 -122.632416 0 6003ft 196kts
26-Jul-20 14:56 45.884542 -122.641165 0 6003ft 197kts
26-Jul-20 14:57 45.937336 -122.649978 0 6542ft 180kts
26-Jul-20 14:58 45.986305 -122.658720 359 7382ft 175kts
26-Jul-20 14:59 46.034622 -122.667051 359 8013ft 182kts
26-Jul-20 15:00 46.087527 -122.675197 359 8005ft 196kts
26-Jul-20 15:01 46.138785 -122.685351 355 8028ft 198kts
26-Jul-20 15:02 46.193805 -122.697207 357 8050ft 199kts
26-Jul-20 15:03 46.249183 -122.707908 358 8074ft 198kts
26-Jul-20 15:04 46.304404 -122.719052 356 8073ft 200kts
26-Jul-20 15:05 46.359690 -122.723314 5 8077ft 198kts
26-Jul-20 15:05 46.405795 -122.725425 3 8076ft 198kts
26-Jul-20 15:07 46.469672 -122.727599 2 8072ft 198kts
26-Jul-20 15:08 46.524792 -122.729599 4 8076ft 198kts
26-Jul-20 15:08 46.570884 -122.731315 2 8072ft 198kts
26-Jul-20 15:09 46.626125 -122.733315 4 8076ft 198kts
26-Jul-20 15:11 46.690541 -122.735672 5 8072ft 197kts
26-Jul-20 15:11 46.736463 -122.737163 3 8080ft 197kts
26-Jul-20 15:12 46.790323 -122.731777 38 8103ft 185kts
26-Jul-20 15:14 46.837351 -122.676901 43 8114ft 185kts
26-Jul-20 15:14 46.869493 -122.634300 47 8021ft 186kts
26-Jul-20 15:15 46.907147 -122.581866 47 8027ft 186kts
26-Jul-20 15:16 46.943365 -122.527630 49 8008ft 185kts
26-Jul-20 15:17 46.979393 -122.473254 46 8008ft 185kts
26-Jul-20 15:18 47.026430 -122.431441 34 7327ft 200kts
26-Jul-20 15:19 47.067328 -122.397125 34 6415ft 154kts
26-Jul-20 15:20 47.105720 -122.364514 34 6008ft 162kts
26-Jul-20 15:21 47.150086 -122.341859 15 6010ft 175kts
26-Jul-20 15:22 47.197066 -122.330242 12 5525ft 170kts
26-Jul-20 15:23 47.243378 -122.323148 6 4684ft 161kts
26-Jul-20 15:24 47.285872 -122.325348 2 3377ft 149kts
26-Jul-20 15:25 47.323870 -122.324240 7 2508ft 131kts
26-Jul-20 15:26 47.358815 -122.315551 7 1921ft 110kts
26-Jul-20 15:27 47.388183 -122.312299 2 1302ft 103kts
26-Jul-20 15:28 47.413985 -122.311569 359 914ft 85kts
26-Jul-20 15:29 47.436998 -122.311294 1 397ft 75kts
26-Jul-20 15:30 47.446455 -122.312662 272 384ft 16kts

Navigation Log

Ident Type
Flight plan parsing failed, navigation log unavailable